Home   Weather   Crickhowell   Past weeks
Flag for United Kingdom

Past Weather in Crickhowell, Wales, United Kingdom — Yesterday and Last 2 Weeks

Currently: 55 °F. Refreshingly cool. (Weather station: Wales Airport, United Kingdom). See more current weather

Past Weather in Crickhowell — Graph

°F

Crickhowell Temperature Yesterday

Maximum temperature yesterday: 55 °F (at 2:20 pm)
Minimum temperature yesterday: 37 °F (at 12:50 am)
Average temperature yesterday: 45 °F

High & Low Weather Summary for the Past Weeks

 TemperatureHumidityPressure
High64 °F (Apr 24, 3:50 pm)94% (May 3, 6:50 pm)30.36 "Hg (May 3, 6:50 pm)
Low37 °F (May 1, 5:20 am)29% (Apr 23, 6:20 pm)29.39 "Hg (May 3, 10:50 pm)
Average48 °F70%29.99 "Hg
* Reported Apr 22 3:20 pm — May 7 3:50 pm, Crickhowell. Weather by CustomWeather, © 2021

Note: Actual official high and low records may vary slightly from our data, if they occured in-between our weather recording intervals... More about our weather records

Crickhowell Weather History for the Previous 24 Hours

Scroll right to see more
 ConditionsComfort  
Time TempWeatherWind HumidityBarometerVisibility
3:50 pm
Fri, May 7
55 °FRefreshingly cool.7 mph38%30.01 "HgN/A
3:20 pm55 °FRefreshingly cool.10 mph36%30.01 "HgN/A
2:50 pm55 °FRefreshingly cool.10 mph38%30.04 "HgN/A
2:20 pm55 °FRefreshingly cool.12 mph44%30.04 "HgN/A
1:50 pm54 °FCool.12 mph51%30.04 "HgN/A
1:20 pm54 °FCool.12 mph51%30.04 "HgN/A
12:50 pm54 °FCool.13 mph54%30.04 "HgN/A
12:20 pm54 °FPassing clouds.10 mph58%30.04 "HgN/A
11:50 am54 °FScattered clouds.14 mph63%30.04 "HgN/A
11:20 am54 °FPassing clouds.12 mph51%30.04 "HgN/A
10:50 am54 °FCool.13 mph58%30.04 "HgN/A
10:20 am52 °FPassing clouds.12 mph72%30.04 "HgN/A
9:50 am52 °FBroken clouds.9 mph67%30.01 "HgN/A
9:20 am52 °FPartly sunny.6 mph72%30.01 "HgN/A
8:50 am50 °FCool.3 mph76%30.01 "HgN/A
8:20 am46 °FCool.1 mph82%30.01 "HgN/A
7:50 am46 °FCool.3 mph82%30.01 "HgN/A
7:20 am43 °FQuite cool.3 mph87%29.98 "HgN/A
6:50 am39 °FPassing clouds.2 mph87%29.98 "HgN/A
6:20 am39 °FChilly.3 mph87%29.98 "HgN/A
5:50 am39 °FChilly.5 mph87%29.98 "HgN/A
5:20 am39 °FChilly.5 mph81%29.95 "HgN/A
4:50 am39 °FChilly.6 mph81%29.95 "HgN/A
4:20 am37 °FChilly.7 mph81%29.95 "HgN/A
3:50 am37 °FChilly.8 mph81%29.95 "HgN/A
3:20 am37 °FChilly.8 mph81%29.95 "HgN/A
2:50 am39 °FChilly.7 mph75%29.95 "HgN/A
2:20 am37 °FChilly.8 mph81%29.95 "HgN/A
1:20 am39 °FChilly.10 mph75%29.95 "HgN/A
12:50 am37 °FChilly.9 mph81%29.95 "HgN/A
12:20 am39 °FChilly.10 mph75%29.92 "HgN/A
11:50 pm
Thu, May 6
37 °FChilly.12 mph81%29.92 "HgN/A
11:20 pm39 °FChilly.8 mph70%29.92 "HgN/A
10:50 pm39 °FChilly.9 mph70%29.89 "HgN/A
10:20 pm39 °FChilly.10 mph75%29.89 "HgN/A
9:50 pm41 °FQuite cool.10 mph70%29.89 "HgN/A
9:20 pm41 °FQuite cool.10 mph70%29.89 "HgN/A
8:50 pm45 °FQuite cool.14 mph57%29.86 "HgN/A
8:20 pm46 °FCool.14 mph50%29.83 "HgN/A
7:50 pm50 °FCool.13 mph50%29.83 "HgN/A
7:20 pm50 °FCool.14 mph50%29.80 "HgN/A
6:50 pm52 °FCool.15 mph41%29.80 "HgN/A
6:20 pm54 °FCool.17 mph44%29.77 "HgN/A
5:50 pm54 °FCool.16 mph41%29.77 "HgN/A
5:20 pm55 °FRefreshingly cool.15 mph36%29.74 "HgN/A
Weather by CustomWeather, © 2021

See weather overview